sensor_id;sensor_type;location;lat;lon;timestamp;temperature;humidity
9033;DHT22;4551;53.164;8.210;2022-12-07T00:01:45;4.30;99.90
9033;DHT22;4551;53.164;8.210;2022-12-07T00:04:15;4.30;99.90
9033;DHT22;4551;53.164;8.210;2022-12-07T00:06:44;4.30;99.90
9033;DHT22;4551;53.164;8.210;2022-12-07T00:09:18;4.30;99.90
9033;DHT22;4551;53.164;8.210;2022-12-07T00:11:50;4.30;99.90
9033;DHT22;4551;53.164;8.210;2022-12-07T00:14:23;4.30;99.90
9033;DHT22;4551;53.164;8.210;2022-12-07T00:16:51;4.20;99.90
9033;DHT22;4551;53.164;8.210;2022-12-07T00:19:21;4.20;99.90
9033;DHT22;4551;53.164;8.210;2022-12-07T00:21:49;4.20;99.90
9033;DHT22;4551;53.164;8.210;2022-12-07T00:24:17;4.10;99.90
9033;DHT22;4551;53.164;8.210;2022-12-07T00:26:47;4.20;99.90
9033;DHT22;4551;53.164;8.210;2022-12-07T00:29:17;4.10;99.90
9033;DHT22;4551;53.164;8.210;2022-12-07T00:31:45;4.10;99.90
9033;DHT22;4551;53.164;8.210;2022-12-07T00:34:14;4.10;99.90
9033;DHT22;4551;53.164;8.210;2022-12-07T00:36:44;4.10;99.90
9033;DHT22;4551;53.164;8.210;2022-12-07T00:39:12;4.00;99.90
9033;DHT22;4551;53.164;8.210;2022-12-07T00:41:40;4.00;99.90
9033;DHT22;4551;53.164;8.210;2022-12-07T00:44:15;4.00;99.90
9033;DHT22;4551;53.164;8.210;2022-12-07T00:46:43;4.00;99.90
9033;DHT22;4551;53.164;8.210;2022-12-07T00:49:12;4.00;99.90
9033;DHT22;4551;53.164;8.210;2022-12-07T00:51:41;4.00;99.90
9033;DHT22;4551;53.164;8.210;2022-12-07T00:54:10;3.90;99.90
9033;DHT22;4551;53.164;8.210;2022-12-07T00:56:38;3.90;99.90
9033;DHT22;4551;53.164;8.210;2022-12-07T00:59:06;3.90;99.90
9033;DHT22;4551;53.164;8.210;2022-12-07T01:01:39;3.90;99.90
9033;DHT22;4551;53.164;8.210;2022-12-07T01:04:13;3.90;99.90
9033;DHT22;4551;53.164;8.210;2022-12-07T01:06:41;3.80;99.90
9033;DHT22;4551;53.164;8.210;2022-12-07T01:09:10;3.80;99.90
9033;DHT22;4551;53.164;8.210;2022-12-07T01:11:38;3.80;99.90
9033;DHT22;4551;53.164;8.210;2022-12-07T01:14:09;3.80;99.90
9033;DHT22;4551;53.164;8.210;2022-12-07T01:16:38;3.80;99.90
9033;DHT22;4551;53.164;8.210;2022-12-07T01:19:06;3.70;99.90
9033;DHT22;4551;53.164;8.210;2022-12-07T01:21:35;3.70;99.90
9033;DHT22;4551;53.164;8.210;2022-12-07T01:24:05;3.70;99.90
9033;DHT22;4551;53.164;8.210;2022-12-07T01:26:35;3.70;99.90
9033;DHT22;4551;53.164;8.210;2022-12-07T01:29:03;3.70;99.90
9033;DHT22;4551;53.164;8.210;2022-12-07T01:31:33;3.70;99.90
9033;DHT22;4551;53.164;8.210;2022-12-07T01:34:01;3.70;99.90
9033;DHT22;4551;53.164;8.210;2022-12-07T01:36:30;3.70;99.90
9033;DHT22;4551;53.164;8.210;2022-12-07T01:39:02;3.70;99.90
9033;DHT22;4551;53.164;8.210;2022-12-07T01:41:31;3.70;99.90
9033;DHT22;4551;53.164;8.210;2022-12-07T01:46:53;3.60;99.90
9033;DHT22;4551;53.164;8.210;2022-12-07T01:49:23;3.60;99.90
9033;DHT22;4551;53.164;8.210;2022-12-07T01:51:54;3.60;99.90
9033;DHT22;4551;53.164;8.210;2022-12-07T01:54:25;3.60;99.90
9033;DHT22;4551;53.164;8.210;2022-12-07T01:56:54;3.60;99.90
9033;DHT22;4551;53.164;8.210;2022-12-07T01:59:24;3.60;99.90
9033;DHT22;4551;53.164;8.210;2022-12-07T02:01:54;3.60;99.90
9033;DHT22;4551;53.164;8.210;2022-12-07T02:04:27;3.60;99.90
9033;DHT22;4551;53.164;8.210;2022-12-07T02:06:56;3.60;99.90
9033;DHT22;4551;53.164;8.210;2022-12-07T02:09:26;3.60;99.90
9033;DHT22;4551;53.164;8.210;2022-12-07T02:11:57;3.60;99.90
9033;DHT22;4551;53.164;8.210;2022-12-07T02:14:25;3.60;99.90
9033;DHT22;4551;53.164;8.210;2022-12-07T02:17:02;3.60;99.90
9033;DHT22;4551;53.164;8.210;2022-12-07T02:19:51;3.60;99.90
9033;DHT22;4551;53.164;8.210;2022-12-07T02:22:30;3.60;99.90
9033;DHT22;4551;53.164;8.210;2022-12-07T02:25:05;3.60;99.90
9033;DHT22;4551;53.164;8.210;2022-12-07T02:27:40;3.60;99.90
9033;DHT22;4551;53.164;8.210;2022-12-07T02:30:11;3.60;99.90
9033;DHT22;4551;53.164;8.210;2022-12-07T02:32:43;3.60;99.90
9033;DHT22;4551;53.164;8.210;2022-12-07T02:35:15;3.60;99.90
9033;DHT22;4551;53.164;8.210;2022-12-07T02:37:48;3.60;99.90
9033;DHT22;4551;53.164;8.210;2022-12-07T02:40:19;3.60;99.90
9033;DHT22;4551;53.164;8.210;2022-12-07T02:42:55;3.60;99.90
9033;DHT22;4551;53.164;8.210;2022-12-07T02:45:25;3.60;99.90
9033;DHT22;4551;53.164;8.210;2022-12-07T02:48:03;3.50;99.90
9033;DHT22;4551;53.164;8.210;2022-12-07T02:50:32;3.50;99.90
9033;DHT22;4551;53.164;8.210;2022-12-07T02:53:00;3.50;99.90
9033;DHT22;4551;53.164;8.210;2022-12-07T02:55:29;3.50;99.90
9033;DHT22;4551;53.164;8.210;2022-12-07T02:58:18;3.50;99.90
9033;DHT22;4551;53.164;8.210;2022-12-07T03:00:51;3.40;99.90
9033;DHT22;4551;53.164;8.210;2022-12-07T03:03:25;3.40;99.90
9033;DHT22;4551;53.164;8.210;2022-12-07T03:06:08;3.40;99.90
9033;DHT22;4551;53.164;8.210;2022-12-07T03:08:42;3.40;99.90
9033;DHT22;4551;53.164;8.210;2022-12-07T03:11:12;3.30;99.90
9033;DHT22;4551;53.164;8.210;2022-12-07T03:13:48;3.30;99.90
9033;DHT22;4551;53.164;8.210;2022-12-07T03:16:22;3.30;99.90
9033;DHT22;4551;53.164;8.210;2022-12-07T03:18:53;3.30;99.90
9033;DHT22;4551;53.164;8.210;2022-12-07T03:21:26;3.30;99.90
9033;DHT22;4551;53.164;8.210;2022-12-07T03:23:58;3.30;99.90
9033;DHT22;4551;53.164;8.210;2022-12-07T03:26:28;3.30;99.90
9033;DHT22;4551;53.164;8.210;2022-12-07T03:28:58;3.30;99.90
9033;DHT22;4551;53.164;8.210;2022-12-07T03:31:30;3.30;99.90
9033;DHT22;4551;53.164;8.210;2022-12-07T03:34:03;3.30;99.90
9033;DHT22;4551;53.164;8.210;2022-12-07T03:36:34;3.30;99.90
9033;DHT22;4551;53.164;8.210;2022-12-07T03:39:07;3.30;99.90
9033;DHT22;4551;53.164;8.210;2022-12-07T03:41:42;3.30;99.90
9033;DHT22;4551;53.164;8.210;2022-12-07T03:44:11;3.20;99.90
9033;DHT22;4551;53.164;8.210;2022-12-07T03:46:43;3.20;99.90
9033;DHT22;4551;53.164;8.210;2022-12-07T03:49:13;3.20;99.90
9033;DHT22;4551;53.164;8.210;2022-12-07T03:51:48;3.20;99.90
9033;DHT22;4551;53.164;8.210;2022-12-07T03:54:22;3.20;99.90
9033;DHT22;4551;53.164;8.210;2022-12-07T03:56:57;3.20;99.90
9033;DHT22;4551;53.164;8.210;2022-12-07T03:59:28;3.20;99.90
9033;DHT22;4551;53.164;8.210;2022-12-07T04:02:17;3.20;99.90
9033;DHT22;4551;53.164;8.210;2022-12-07T04:04:49;3.30;99.90
9033;DHT22;4551;53.164;8.210;2022-12-07T04:07:20;3.20;99.90
9033;DHT22;4551;53.164;8.210;2022-12-07T04:09:48;3.20;99.90
9033;DHT22;4551;53.164;8.210;2022-12-07T04:12:16;3.20;99.90
9033;DHT22;4551;53.164;8.210;2022-12-07T04:14:47;3.20;99.90
9033;DHT22;4551;53.164;8.210;2022-12-07T04:17:15;3.30;99.90
9033;DHT22;4551;53.164;8.210;2022-12-07T04:19:44;3.30;99.90
9033;DHT22;4551;53.164;8.210;2022-12-07T04:22:15;3.30;99.90
9033;DHT22;4551;53.164;8.210;2022-12-07T04:24:43;3.30;99.90
9033;DHT22;4551;53.164;8.210;2022-12-07T04:27:11;3.30;99.90
9033;DHT22;4551;53.164;8.210;2022-12-07T04:29:39;3.30;99.90
9033;DHT22;4551;53.164;8.210;2022-12-07T04:32:07;3.20;99.90
9033;DHT22;4551;53.164;8.210;2022-12-07T04:34:35;3.20;99.90
9033;DHT22;4551;53.164;8.210;2022-12-07T04:37:04;3.20;99.90
9033;DHT22;4551;53.164;8.210;2022-12-07T04:39:33;3.20;99.90
9033;DHT22;4551;53.164;8.210;2022-12-07T04:42:07;3.20;99.90
9033;DHT22;4551;53.164;8.210;2022-12-07T04:44:35;3.20;99.90
9033;DHT22;4551;53.164;8.210;2022-12-07T04:47:11;3.20;99.90
9033;DHT22;4551;53.164;8.210;2022-12-07T04:49:39;3.20;99.90
9033;DHT22;4551;53.164;8.210;2022-12-07T04:52:08;3.20;99.90
9033;DHT22;4551;53.164;8.210;2022-12-07T04:54:50;3.20;99.90
9033;DHT22;4551;53.164;8.210;2022-12-07T04:57:18;3.20;99.90
9033;DHT22;4551;53.164;8.210;2022-12-07T04:59:53;3.20;99.90
9033;DHT22;4551;53.164;8.210;2022-12-07T05:02:21;3.20;99.90
9033;DHT22;4551;53.164;8.210;2022-12-07T05:04:49;3.20;99.90
9033;DHT22;4551;53.164;8.210;2022-12-07T05:07:18;3.20;99.90
9033;DHT22;4551;53.164;8.210;2022-12-07T05:09:46;3.20;99.90
9033;DHT22;4551;53.164;8.210;2022-12-07T05:12:16;3.20;99.90
9033;DHT22;4551;53.164;8.210;2022-12-07T05:14:44;3.20;99.90
9033;DHT22;4551;53.164;8.210;2022-12-07T05:17:11;3.20;99.90
9033;DHT22;4551;53.164;8.210;2022-12-07T05:19:40;3.30;99.90
9033;DHT22;4551;53.164;8.210;2022-12-07T05:22:19;3.20;99.90
9033;DHT22;4551;53.164;8.210;2022-12-07T05:24:48;3.20;99.90
9033;DHT22;4551;53.164;8.210;2022-12-07T05:27:16;3.20;99.90
9033;DHT22;4551;53.164;8.210;2022-12-07T05:29:44;3.20;99.90
9033;DHT22;4551;53.164;8.210;2022-12-07T05:32:16;3.20;99.90
9033;DHT22;4551;53.164;8.210;2022-12-07T05:34:44;3.20;99.90
9033;DHT22;4551;53.164;8.210;2022-12-07T05:37:14;3.20;99.90
9033;DHT22;4551;53.164;8.210;2022-12-07T05:39:44;3.20;99.90
9033;DHT22;4551;53.164;8.210;2022-12-07T05:42:12;3.20;99.90
9033;DHT22;4551;53.164;8.210;2022-12-07T05:44:40;3.20;99.90
9033;DHT22;4551;53.164;8.210;2022-12-07T05:47:14;3.20;99.90
9033;DHT22;4551;53.164;8.210;2022-12-07T05:49:57;3.20;99.90
9033;DHT22;4551;53.164;8.210;2022-12-07T05:52:25;3.20;99.90
9033;DHT22;4551;53.164;8.210;2022-12-07T05:54:54;3.20;99.90
9033;DHT22;4551;53.164;8.210;2022-12-07T05:57:24;3.20;99.90
9033;DHT22;4551;53.164;8.210;2022-12-07T05:59:52;3.20;99.90
9033;DHT22;4551;53.164;8.210;2022-12-07T06:02:21;3.20;99.90
9033;DHT22;4551;53.164;8.210;2022-12-07T06:04:49;3.20;99.90
9033;DHT22;4551;53.164;8.210;2022-12-07T06:07:44;3.20;99.90
9033;DHT22;4551;53.164;8.210;2022-12-07T06:10:13;3.20;99.90
9033;DHT22;4551;53.164;8.210;2022-12-07T06:12:49;3.20;99.90
9033;DHT22;4551;53.164;8.210;2022-12-07T06:15:18;3.20;99.90
9033;DHT22;4551;53.164;8.210;2022-12-07T06:17:47;3.20;99.90
9033;DHT22;4551;53.164;8.210;2022-12-07T06:20:15;3.20;99.90
9033;DHT22;4551;53.164;8.210;2022-12-07T06:22:43;3.20;99.90
9033;DHT22;4551;53.164;8.210;2022-12-07T06:25:11;3.20;99.90
9033;DHT22;4551;53.164;8.210;2022-12-07T06:27:40;3.20;99.90
9033;DHT22;4551;53.164;8.210;2022-12-07T06:30:09;3.30;99.90
9033;DHT22;4551;53.164;8.210;2022-12-07T06:32:37;3.30;99.90
9033;DHT22;4551;53.164;8.210;2022-12-07T06:35:05;3.30;99.90
9033;DHT22;4551;53.164;8.210;2022-12-07T06:37:37;3.30;99.90
9033;DHT22;4551;53.164;8.210;2022-12-07T06:40:06;3.30;99.90
9033;DHT22;4551;53.164;8.210;2022-12-07T06:42:34;3.30;99.90
9033;DHT22;4551;53.164;8.210;2022-12-07T06:45:03;3.30;99.90
9033;DHT22;4551;53.164;8.210;2022-12-07T06:47:32;3.30;99.90
9033;DHT22;4551;53.164;8.210;2022-12-07T06:50:10;3.30;99.90
9033;DHT22;4551;53.164;8.210;2022-12-07T06:52:38;3.30;99.90
9033;DHT22;4551;53.164;8.210;2022-12-07T06:55:06;3.20;99.90
9033;DHT22;4551;53.164;8.210;2022-12-07T06:57:34;3.20;99.90
9033;DHT22;4551;53.164;8.210;2022-12-07T07:00:04;3.30;99.90
9033;DHT22;4551;53.164;8.210;2022-12-07T07:02:33;3.30;99.90
9033;DHT22;4551;53.164;8.210;2022-12-07T07:05:01;3.20;99.90
9033;DHT22;4551;53.164;8.210;2022-12-07T07:07:29;3.20;99.90
9033;DHT22;4551;53.164;8.210;2022-12-07T07:10:07;3.20;99.90
9033;DHT22;4551;53.164;8.210;2022-12-07T07:12:35;3.20;99.90
9033;DHT22;4551;53.164;8.210;2022-12-07T07:15:06;3.30;99.90
9033;DHT22;4551;53.164;8.210;2022-12-07T07:17:34;3.20;99.90
9033;DHT22;4551;53.164;8.210;2022-12-07T07:20:08;3.30;99.90
9033;DHT22;4551;53.164;8.210;2022-12-07T07:22:38;3.20;99.90
9033;DHT22;4551;53.164;8.210;2022-12-07T07:25:06;3.20;99.90
9033;DHT22;4551;53.164;8.210;2022-12-07T07:27:34;3.20;99.90
9033;DHT22;4551;53.164;8.210;2022-12-07T07:30:03;3.20;99.90
9033;DHT22;4551;53.164;8.210;2022-12-07T07:32:35;3.20;99.90
9033;DHT22;4551;53.164;8.210;2022-12-07T07:35:03;3.10;99.90
9033;DHT22;4551;53.164;8.210;2022-12-07T07:37:31;3.10;99.90
9033;DHT22;4551;53.164;8.210;2022-12-07T07:39:59;3.20;99.90
9033;DHT22;4551;53.164;8.210;2022-12-07T07:42:28;3.10;99.90
9033;DHT22;4551;53.164;8.210;2022-12-07T07:44:56;3.20;99.90
9033;DHT22;4551;53.164;8.210;2022-12-07T07:47:24;3.10;99.90
9033;DHT22;4551;53.164;8.210;2022-12-07T07:49:53;3.10;99.90
9033;DHT22;4551;53.164;8.210;2022-12-07T07:52:21;3.10;99.90
9033;DHT22;4551;53.164;8.210;2022-12-07T07:54:49;3.10;99.90
9033;DHT22;4551;53.164;8.210;2022-12-07T07:57:17;3.10;99.90
9033;DHT22;4551;53.164;8.210;2022-12-07T07:59:45;3.10;99.90
9033;DHT22;4551;53.164;8.210;2022-12-07T08:02:15;3.10;99.90
9033;DHT22;4551;53.164;8.210;2022-12-07T08:04:43;3.10;99.90
9033;DHT22;4551;53.164;8.210;2022-12-07T08:07:13;3.10;99.90
9033;DHT22;4551;53.164;8.210;2022-12-07T08:09:42;3.10;99.90
9033;DHT22;4551;53.164;8.210;2022-12-07T08:12:10;3.10;99.90
9033;DHT22;4551;53.164;8.210;2022-12-07T08:14:38;3.10;99.90
9033;DHT22;4551;53.164;8.210;2022-12-07T08:17:06;3.10;99.90
9033;DHT22;4551;53.164;8.210;2022-12-07T08:19:34;3.20;99.90
9033;DHT22;4551;53.164;8.210;2022-12-07T08:22:02;3.20;99.90
9033;DHT22;4551;53.164;8.210;2022-12-07T08:24:33;3.20;99.90
9033;DHT22;4551;53.164;8.210;2022-12-07T08:27:01;3.10;99.90
9033;DHT22;4551;53.164;8.210;2022-12-07T08:29:29;3.10;99.90
9033;DHT22;4551;53.164;8.210;2022-12-07T08:31:57;3.20;99.90
9033;DHT22;4551;53.164;8.210;2022-12-07T08:34:34;3.20;99.90
9033;DHT22;4551;53.164;8.210;2022-12-07T08:37:03;3.20;99.90
9033;DHT22;4551;53.164;8.210;2022-12-07T08:39:33;3.20;99.90
9033;DHT22;4551;53.164;8.210;2022-12-07T08:42:01;3.20;99.90
9033;DHT22;4551;53.164;8.210;2022-12-07T08:44:29;3.20;99.90
9033;DHT22;4551;53.164;8.210;2022-12-07T08:46:58;3.20;99.90
9033;DHT22;4551;53.164;8.210;2022-12-07T08:49:27;3.20;99.90
9033;DHT22;4551;53.164;8.210;2022-12-07T08:51:59;3.40;99.90
9033;DHT22;4551;53.164;8.210;2022-12-07T08:55:01;3.30;99.90
9033;DHT22;4551;53.164;8.210;2022-12-07T08:57:30;3.30;99.90
9033;DHT22;4551;53.164;8.210;2022-12-07T08:59:59;3.30;99.90
9033;DHT22;4551;53.164;8.210;2022-12-07T09:02:28;3.30;99.90
9033;DHT22;4551;53.164;8.210;2022-12-07T09:04:56;3.30;99.90
9033;DHT22;4551;53.164;8.210;2022-12-07T09:07:24;3.30;99.90
9033;DHT22;4551;53.164;8.210;2022-12-07T09:09:53;3.40;99.90
9033;DHT22;4551;53.164;8.210;2022-12-07T09:12:22;3.40;99.90
9033;DHT22;4551;53.164;8.210;2022-12-07T09:14:50;3.40;99.90
9033;DHT22;4551;53.164;8.210;2022-12-07T09:17:18;3.40;99.90
9033;DHT22;4551;53.164;8.210;2022-12-07T09:19:46;3.40;99.90
9033;DHT22;4551;53.164;8.210;2022-12-07T09:22:14;3.40;99.90
9033;DHT22;4551;53.164;8.210;2022-12-07T09:24:42;3.40;99.90
9033;DHT22;4551;53.164;8.210;2022-12-07T09:27:12;3.40;99.90
9033;DHT22;4551;53.164;8.210;2022-12-07T09:29:44;3.40;99.90
9033;DHT22;4551;53.164;8.210;2022-12-07T09:32:16;3.50;99.90
9033;DHT22;4551;53.164;8.210;2022-12-07T09:34:45;3.50;99.90
9033;DHT22;4551;53.164;8.210;2022-12-07T09:37:13;3.50;99.90
9033;DHT22;4551;53.164;8.210;2022-12-07T09:39:41;3.50;99.90
9033;DHT22;4551;53.164;8.210;2022-12-07T09:42:22;3.50;99.90
9033;DHT22;4551;53.164;8.210;2022-12-07T09:44:54;3.60;99.90
9033;DHT22;4551;53.164;8.210;2022-12-07T09:47:23;3.60;99.90
9033;DHT22;4551;53.164;8.210;2022-12-07T09:50:00;3.60;99.90
9033;DHT22;4551;53.164;8.210;2022-12-07T09:52:31;3.60;99.90
9033;DHT22;4551;53.164;8.210;2022-12-07T09:55:08;3.70;99.90
9033;DHT22;4551;53.164;8.210;2022-12-07T09:57:37;3.70;99.90
9033;DHT22;4551;53.164;8.210;2022-12-07T10:00:10;3.70;99.90
9033;DHT22;4551;53.164;8.210;2022-12-07T10:02:40;3.70;99.90
9033;DHT22;4551;53.164;8.210;2022-12-07T10:05:11;3.80;99.90
9033;DHT22;4551;53.164;8.210;2022-12-07T10:07:47;3.80;99.90
9033;DHT22;4551;53.164;8.210;2022-12-07T10:10:17;3.80;99.90
9033;DHT22;4551;53.164;8.210;2022-12-07T10:12:57;3.90;99.90
9033;DHT22;4551;53.164;8.210;2022-12-07T10:15:57;3.90;99.90
9033;DHT22;4551;53.164;8.210;2022-12-07T10:18:33;3.90;99.90
9033;DHT22;4551;53.164;8.210;2022-12-07T10:21:04;4.00;99.90
9033;DHT22;4551;53.164;8.210;2022-12-07T10:23:34;4.00;99.90
9033;DHT22;4551;53.164;8.210;2022-12-07T10:28:45;4.10;99.90
9033;DHT22;4551;53.164;8.210;2022-12-07T10:31:16;4.10;99.90
9033;DHT22;4551;53.164;8.210;2022-12-07T10:33:49;4.20;99.90
9033;DHT22;4551;53.164;8.210;2022-12-07T10:36:19;4.20;99.90
9033;DHT22;4551;53.164;8.210;2022-12-07T10:38:48;4.30;99.90
9033;DHT22;4551;53.164;8.210;2022-12-07T10:41:16;4.30;99.90
9033;DHT22;4551;53.164;8.210;2022-12-07T10:43:49;4.40;99.90
9033;DHT22;4551;53.164;8.210;2022-12-07T10:49:18;4.40;99.90
9033;DHT22;4551;53.164;8.210;2022-12-07T10:51:50;4.40;99.90
9033;DHT22;4551;53.164;8.210;2022-12-07T10:54:24;4.50;99.90
9033;DHT22;4551;53.164;8.210;2022-12-07T10:57:02;4.50;99.90
9033;DHT22;4551;53.164;8.210;2022-12-07T11:02:24;4.50;99.90
9033;DHT22;4551;53.164;8.210;2022-12-07T11:05:01;4.60;99.90
9033;DHT22;4551;53.164;8.210;2022-12-07T11:07:34;4.60;99.90
9033;DHT22;4551;53.164;8.210;2022-12-07T11:10:08;4.60;99.90
9033;DHT22;4551;53.164;8.210;2022-12-07T11:12:48;4.70;99.90
9033;DHT22;4551;53.164;8.210;2022-12-07T11:15:19;4.60;99.90
9033;DHT22;4551;53.164;8.210;2022-12-07T11:17:49;4.60;99.90
9033;DHT22;4551;53.164;8.210;2022-12-07T11:20:27;4.60;99.90
9033;DHT22;4551;53.164;8.210;2022-12-07T11:22:58;4.60;99.90
9033;DHT22;4551;53.164;8.210;2022-12-07T11:25:31;4.60;99.90
9033;DHT22;4551;53.164;8.210;2022-12-07T11:28:03;4.70;99.90
9033;DHT22;4551;53.164;8.210;2022-12-07T11:30:37;4.70;99.90
9033;DHT22;4551;53.164;8.210;2022-12-07T11:33:10;4.80;99.90
9033;DHT22;4551;53.164;8.210;2022-12-07T11:35:47;4.80;99.90
9033;DHT22;4551;53.164;8.210;2022-12-07T11:38:20;4.80;99.90
9033;DHT22;4551;53.164;8.210;2022-12-07T11:40:56;4.90;99.90
9033;DHT22;4551;53.164;8.210;2022-12-07T11:43:49;5.00;99.90
9033;DHT22;4551;53.164;8.210;2022-12-07T11:46:18;5.10;99.90
9033;DHT22;4551;53.164;8.210;2022-12-07T11:48:52;5.20;99.90
9033;DHT22;4551;53.164;8.210;2022-12-07T11:51:24;5.30;99.90
9033;DHT22;4551;53.164;8.210;2022-12-07T11:53:59;5.40;99.90
9033;DHT22;4551;53.164;8.210;2022-12-07T11:56:30;5.50;99.90
9033;DHT22;4551;53.164;8.210;2022-12-07T11:59:01;5.60;99.90
9033;DHT22;4551;53.164;8.210;2022-12-07T12:01:35;5.70;99.90
9033;DHT22;4551;53.164;8.210;2022-12-07T12:04:11;5.60;99.90
9033;DHT22;4551;53.164;8.210;2022-12-07T12:06:45;5.70;99.90
9033;DHT22;4551;53.164;8.210;2022-12-07T12:09:14;5.90;99.90
9033;DHT22;4551;53.164;8.210;2022-12-07T12:12:09;6.00;99.90
9033;DHT22;4551;53.164;8.210;2022-12-07T12:15:03;6.20;99.90
9033;DHT22;4551;53.164;8.210;2022-12-07T12:17:44;6.30;99.90
9033;DHT22;4551;53.164;8.210;2022-12-07T12:20:17;6.30;99.90
9033;DHT22;4551;53.164;8.210;2022-12-07T12:22:50;6.20;99.90
9033;DHT22;4551;53.164;8.210;2022-12-07T12:25:20;6.20;99.90
9033;DHT22;4551;53.164;8.210;2022-12-07T12:27:49;6.20;99.90
9033;DHT22;4551;53.164;8.210;2022-12-07T12:30:24;6.10;99.90
9033;DHT22;4551;53.164;8.210;2022-12-07T12:32:53;6.10;99.90
9033;DHT22;4551;53.164;8.210;2022-12-07T12:35:30;6.20;99.90
9033;DHT22;4551;53.164;8.210;2022-12-07T12:40:47;6.30;99.90
9033;DHT22;4551;53.164;8.210;2022-12-07T12:49:13;6.20;99.90
9033;DHT22;4551;53.164;8.210;2022-12-07T12:51:43;6.10;99.90
9033;DHT22;4551;53.164;8.210;2022-12-07T12:54:14;6.10;99.90
9033;DHT22;4551;53.164;8.210;2022-12-07T12:56:45;6.00;99.90
9033;DHT22;4551;53.164;8.210;2022-12-07T12:59:24;6.00;99.90
9033;DHT22;4551;53.164;8.210;2022-12-07T13:01:54;5.90;99.90
9033;DHT22;4551;53.164;8.210;2022-12-07T13:07:10;5.80;99.90
9033;DHT22;4551;53.164;8.210;2022-12-07T13:09:38;5.70;99.90
9033;DHT22;4551;53.164;8.210;2022-12-07T13:12:13;5.60;99.90
9033;DHT22;4551;53.164;8.210;2022-12-07T13:14:52;5.40;99.90
9033;DHT22;4551;53.164;8.210;2022-12-07T13:20:07;5.20;99.90
9033;DHT22;4551;53.164;8.210;2022-12-07T13:22:44;5.10;99.90
9033;DHT22;4551;53.164;8.210;2022-12-07T13:25:18;5.00;99.90
9033;DHT22;4551;53.164;8.210;2022-12-07T13:27:51;5.00;99.90
9033;DHT22;4551;53.164;8.210;2022-12-07T13:30:23;5.00;99.90
9033;DHT22;4551;53.164;8.210;2022-12-07T13:32:52;5.00;99.90
9033;DHT22;4551;53.164;8.210;2022-12-07T13:35:27;5.00;99.90
9033;DHT22;4551;53.164;8.210;2022-12-07T13:37:55;5.00;99.90
9033;DHT22;4551;53.164;8.210;2022-12-07T13:40:23;5.00;99.90
9033;DHT22;4551;53.164;8.210;2022-12-07T13:43:00;5.00;99.90
9033;DHT22;4551;53.164;8.210;2022-12-07T13:45:28;5.00;99.90
9033;DHT22;4551;53.164;8.210;2022-12-07T13:48:18;5.10;99.90
9033;DHT22;4551;53.164;8.210;2022-12-07T13:50:55;5.10;99.90
9033;DHT22;4551;53.164;8.210;2022-12-07T13:53:23;5.10;99.90
9033;DHT22;4551;53.164;8.210;2022-12-07T13:55:54;5.20;99.90
9033;DHT22;4551;53.164;8.210;2022-12-07T13:58:33;5.10;99.90
9033;DHT22;4551;53.164;8.210;2022-12-07T14:01:01;5.20;99.90
9033;DHT22;4551;53.164;8.210;2022-12-07T14:03:31;5.00;99.90
9033;DHT22;4551;53.164;8.210;2022-12-07T14:06:03;4.60;99.90
9033;DHT22;4551;53.164;8.210;2022-12-07T14:08:32;4.50;99.90
9033;DHT22;4551;53.164;8.210;2022-12-07T14:11:00;4.40;99.90
9033;DHT22;4551;53.164;8.210;2022-12-07T14:13:30;4.30;99.90
9033;DHT22;4551;53.164;8.210;2022-12-07T14:15:59;4.20;99.90
9033;DHT22;4551;53.164;8.210;2022-12-07T14:18:28;4.10;99.90
9033;DHT22;4551;53.164;8.210;2022-12-07T14:21:06;4.00;99.90
9033;DHT22;4551;53.164;8.210;2022-12-07T14:24:10;3.90;99.90
9033;DHT22;4551;53.164;8.210;2022-12-07T14:26:40;3.70;99.90
9033;DHT22;4551;53.164;8.210;2022-12-07T14:29:20;3.90;99.90
9033;DHT22;4551;53.164;8.210;2022-12-07T14:31:48;3.50;99.90
9033;DHT22;4551;53.164;8.210;2022-12-07T14:34:16;3.40;99.90
9033;DHT22;4551;53.164;8.210;2022-12-07T14:36:47;3.40;99.90
9033;DHT22;4551;53.164;8.210;2022-12-07T14:39:15;3.30;99.90
9033;DHT22;4551;53.164;8.210;2022-12-07T14:41:43;3.30;99.90
9033;DHT22;4551;53.164;8.210;2022-12-07T14:44:22;3.40;99.90
9033;DHT22;4551;53.164;8.210;2022-12-07T14:46:57;3.40;99.90
9033;DHT22;4551;53.164;8.210;2022-12-07T14:49:46;3.40;99.90
9033;DHT22;4551;53.164;8.210;2022-12-07T14:52:15;3.40;99.90
9033;DHT22;4551;53.164;8.210;2022-12-07T14:55:12;3.40;99.90
9033;DHT22;4551;53.164;8.210;2022-12-07T14:57:41;3.30;99.90
9033;DHT22;4551;53.164;8.210;2022-12-07T15:00:15;3.30;99.90
9033;DHT22;4551;53.164;8.210;2022-12-07T15:02:44;3.40;99.90
9033;DHT22;4551;53.164;8.210;2022-12-07T15:05:24;3.40;99.90
9033;DHT22;4551;53.164;8.210;2022-12-07T15:07:52;3.40;99.90
9033;DHT22;4551;53.164;8.210;2022-12-07T15:10:21;3.40;99.90
9033;DHT22;4551;53.164;8.210;2022-12-07T15:12:50;3.50;99.90
9033;DHT22;4551;53.164;8.210;2022-12-07T15:15:19;3.50;99.90
9033;DHT22;4551;53.164;8.210;2022-12-07T15:17:48;3.50;99.90
9033;DHT22;4551;53.164;8.210;2022-12-07T15:20:16;3.60;99.90
9033;DHT22;4551;53.164;8.210;2022-12-07T15:22:46;3.60;99.90
9033;DHT22;4551;53.164;8.210;2022-12-07T15:25:14;3.60;99.90
9033;DHT22;4551;53.164;8.210;2022-12-07T15:27:42;3.60;99.90
9033;DHT22;4551;53.164;8.210;2022-12-07T15:30:11;3.70;99.90
9033;DHT22;4551;53.164;8.210;2022-12-07T15:32:40;3.70;99.90
9033;DHT22;4551;53.164;8.210;2022-12-07T15:35:09;3.70;99.90
9033;DHT22;4551;53.164;8.210;2022-12-07T15:37:37;3.70;99.90
9033;DHT22;4551;53.164;8.210;2022-12-07T15:40:05;3.70;99.90
9033;DHT22;4551;53.164;8.210;2022-12-07T15:45:03;3.80;99.90
9033;DHT22;4551;53.164;8.210;2022-12-07T15:47:32;3.80;99.90
9033;DHT22;4551;53.164;8.210;2022-12-07T15:50:23;3.80;99.90
9033;DHT22;4551;53.164;8.210;2022-12-07T15:52:51;3.80;99.90
9033;DHT22;4551;53.164;8.210;2022-12-07T15:55:19;3.80;99.90
9033;DHT22;4551;53.164;8.210;2022-12-07T15:58:02;3.80;99.90
9033;DHT22;4551;53.164;8.210;2022-12-07T16:00:30;3.70;99.90
9033;DHT22;4551;53.164;8.210;2022-12-07T16:02:58;3.70;99.90
9033;DHT22;4551;53.164;8.210;2022-12-07T16:05:28;3.70;99.90
9033;DHT22;4551;53.164;8.210;2022-12-07T16:07:56;3.70;99.90
9033;DHT22;4551;53.164;8.210;2022-12-07T16:10:24;3.70;99.90
9033;DHT22;4551;53.164;8.210;2022-12-07T16:12:52;3.70;99.90
9033;DHT22;4551;53.164;8.210;2022-12-07T16:15:23;3.70;99.90
9033;DHT22;4551;53.164;8.210;2022-12-07T16:17:53;3.70;99.90
9033;DHT22;4551;53.164;8.210;2022-12-07T16:20:24;3.60;99.90
9033;DHT22;4551;53.164;8.210;2022-12-07T16:22:53;3.60;99.90
9033;DHT22;4551;53.164;8.210;2022-12-07T16:25:21;3.60;99.90
9033;DHT22;4551;53.164;8.210;2022-12-07T16:27:50;3.60;99.90
9033;DHT22;4551;53.164;8.210;2022-12-07T16:30:18;3.70;99.90
9033;DHT22;4551;53.164;8.210;2022-12-07T16:32:47;3.70;99.90
9033;DHT22;4551;53.164;8.210;2022-12-07T16:35:37;3.60;99.90
9033;DHT22;4551;53.164;8.210;2022-12-07T16:38:08;3.30;99.90
9033;DHT22;4551;53.164;8.210;2022-12-07T16:40:36;3.30;99.90
9033;DHT22;4551;53.164;8.210;2022-12-07T16:43:04;3.30;99.90
9033;DHT22;4551;53.164;8.210;2022-12-07T16:45:36;3.30;99.90
9033;DHT22;4551;53.164;8.210;2022-12-07T16:48:05;3.30;99.90
9033;DHT22;4551;53.164;8.210;2022-12-07T16:50:33;3.30;99.90
9033;DHT22;4551;53.164;8.210;2022-12-07T16:53:01;3.30;99.90
9033;DHT22;4551;53.164;8.210;2022-12-07T16:55:33;3.30;99.90
9033;DHT22;4551;53.164;8.210;2022-12-07T16:58:02;3.30;99.90
9033;DHT22;4551;53.164;8.210;2022-12-07T17:00:37;3.30;99.90
9033;DHT22;4551;53.164;8.210;2022-12-07T17:03:05;3.30;99.90
9033;DHT22;4551;53.164;8.210;2022-12-07T17:05:36;3.30;99.90
9033;DHT22;4551;53.164;8.210;2022-12-07T17:08:05;3.30;99.90
9033;DHT22;4551;53.164;8.210;2022-12-07T17:10:34;3.30;99.90
9033;DHT22;4551;53.164;8.210;2022-12-07T17:13:03;3.30;99.90